Time;durP1;ratioP1;P1;durP2;ratioP2;P2;SDS_P1;SDS_P2;PMS_P1;PMS_P2;Temp;Humidity;BMP_temperature;BMP_pressure;BME280_temperature;BME280_humidity;BME280_pressure;Samples;Min_cycle;Max_cycle;Signal;HPM_P1;HPM_P2
2023/10/06 00:00:42;;;;;;;0.28;0.25;;;;;;;36.87;42.54;100119.50;7394432;19;20010;-62
2023/10/06 00:03:13;;;;;;;0.10;0.10;;;;;;;38.30;40.08;100122.91;7395471;19;20006;-62
2023/10/06 00:05:41;;;;;;;0.17;0.10;;;;;;;39.15;38.41;100124.06;7393791;19;20011;-62
2023/10/06 00:08:10;;;;;;;0.47;0.30;;;;;;;36.42;40.91;100112.97;7393011;19;20018;-61
2023/10/06 00:10:44;;;;;;;0.32;0.32;;;;;;;33.32;46.09;100124.81;7393569;19;20347;-61
2023/10/06 00:13:29;;;;;;;6.85;0.75;;;;;;;32.07;48.40;100128.38;7406953;19;20025;-62
2023/10/06 00:15:55;;;;;;;0.10;0.10;;;;;;;32.76;48.40;100133.59;7409121;19;20027;-62
2023/10/06 00:18:23;;;;;;;0.05;0.00;;;;;;;33.00;48.08;100117.06;7408758;19;20022;-62
2023/10/06 00:20:57;;;;;;;10.85;0.25;;;;;;;31.61;50.91;100125.25;7406119;19;20441;-62
2023/10/06 00:23:27;;;;;;;3.20;0.20;;;;;;;32.34;49.84;100127.97;7407706;19;20010;-62
2023/10/06 00:25:58;;;;;;;0.00;0.00;;;;;;;33.14;48.17;100120.81;7407895;19;20407;-62
2023/10/06 00:28:32;;;;;;;0.15;0.15;;;;;;;33.18;48.26;100123.97;7408556;19;20478;-62
2023/10/06 00:31:08;;;;;;;0.00;0.00;;;;;;;31.13;51.88;100119.75;7406926;19;20024;-62
2023/10/06 00:33:38;;;;;;;6.68;0.45;;;;;;;31.21;52.96;100121.06;7409370;19;20034;-62
2023/10/06 00:36:16;;;;;;;0.10;0.10;;;;;;;31.93;51.06;100118.75;7406840;19;20017;-62
2023/10/06 00:38:50;;;;;;;0.90;0.52;;;;;;;30.54;54.04;100117.69;7405926;19;20010;-61
2023/10/06 00:41:20;;;;;;;2.30;0.30;;;;;;;29.52;59.29;100125.88;7407238;19;20048;-61
2023/10/06 00:43:49;;;;;;;7.70;0.53;;;;;;;30.10;58.49;100143.19;7408956;19;20014;-61
2023/10/06 00:46:18;;;;;;;9.85;0.52;;;;;;;29.28;60.73;100141.28;7406181;19;20010;-61
2023/10/06 00:48:53;;;;;;;0.25;0.17;;;;;;;31.05;56.98;100131.47;7405960;19;20010;-61
2023/10/06 00:51:25;;;;;;;0.95;0.10;;;;;;;29.64;59.83;100131.81;7406907;19;20011;-61
2023/10/06 00:53:56;;;;;;;0.10;0.00;;;;;;;26.83;76.27;100150.25;7408993;19;20050;-62
2023/10/06 00:56:23;;;;;;;0.52;0.30;;;;;;;28.35;74.85;100148.16;7407513;19;20455;-61
2023/10/06 00:58:50;;;;;;;0.40;0.30;;;;;;;29.89;65.78;100146.66;7404655;19;20014;-62
2023/10/06 01:01:19;;;;;;;0.00;0.00;;;;;;;29.94;64.05;100143.50;7405768;19;20010;-62
2023/10/06 01:04:01;;;;;;;0.30;0.30;;;;;;;28.36;69.92;100146.81;7409634;19;20023;-63
2023/10/06 01:06:35;;;;;;;0.77;0.10;;;;;;;28.70;72.47;100139.47;7408954;19;20014;-62
2023/10/06 01:11:49;;;;;;;0.10;0.10;;;;;;;28.57;72.51;100134.13;7403122;19;20166;-62
2023/10/06 01:14:26;;;;;;;0.20;0.15;;;;;;;29.21;69.32;100127.81;7403788;19;20045;-62
2023/10/06 01:16:56;;;;;;;6.43;0.45;;;;;;;30.99;61.50;100122.41;7409323;19;20018;-62
2023/10/06 01:19:33;;;;;;;0.10;0.10;;;;;;;28.70;68.84;100131.66;7407213;19;20011;-62
2023/10/06 01:22:15;;;;;;;0.15;0.08;;;;;;;30.35;64.65;100120.63;7406354;19;20014;-62
2023/10/06 01:24:41;;;;;;;1.58;0.32;;;;;;;30.21;63.86;100113.84;7400491;19;20022;-62
2023/10/06 01:27:08;;;;;;;0.38;0.32;;;;;;;29.48;65.72;100119.84;7398431;19;20030;-62
2023/10/06 01:29:37;;;;;;;0.00;0.00;;;;;;;30.37;63.22;100112.16;7398829;19;20010;-62
2023/10/06 01:32:08;;;;;;;1.23;0.23;;;;;;;31.29;59.48;100112.25;7398392;19;20422;-62
2023/10/06 01:34:38;;;;;;;0.20;0.17;;;;;;;28.40;69.73;100117.72;7399246;19;20014;-63
2023/10/06 01:37:07;;;;;;;0.75;0.45;;;;;;;30.87;63.16;100104.28;7398332;19;20019;-62
2023/10/06 01:39:35;;;;;;;0.00;0.00;;;;;;;32.70;56.56;100113.75;7398449;19;20010;-62
2023/10/06 01:42:08;;;;;;;0.10;0.05;;;;;;;33.38;54.36;100107.88;7398942;19;20014;-62
2023/10/06 01:44:34;;;;;;;0.35;0.03;;;;;;;35.05;49.15;100106.72;7398289;19;20022;-62
2023/10/06 01:47:04;;;;;;;0.30;0.20;;;;;;;33.06;52.89;100097.25;7397071;19;20017;-62
2023/10/06 01:49:33;;;;;;;0.30;0.30;;;;;;;31.63;55.85;100108.09;7398461;19;20339;-62
2023/10/06 01:52:04;;;;;;;0.10;0.00;;;;;;;30.81;57.55;100089.47;7396771;19;20006;-62
2023/10/06 01:54:34;;;;;;;3.10;0.20;;;;;;;31.03;57.25;100099.69;7398232;19;20023;-62
2023/10/06 01:57:06;;;;;;;0.08;0.00;;;;;;;28.35;68.62;100102.31;7396352;19;20633;-62
2023/10/06 01:59:33;;;;;;;0.25;0.10;;;;;;;30.53;63.52;100098.94;7397101;19;20011;-62
2023/10/06 02:02:01;;;;;;;0.68;0.55;;;;;;;28.94;68.96;100101.25;7397702;19;20035;-62
2023/10/06 02:04:52;;;;;;;3.92;0.45;;;;;;;30.13;64.96;100096.75;7397515;19;20013;-62
2023/10/06 02:07:18;;;;;;;0.10;0.10;;;;;;;29.60;66.48;100091.31;7396142;19;20014;-62
2023/10/06 02:09:44;;;;;;;0.20;0.20;;;;;;;27.91;74.55;100092.97;7397444;19;20026;-63
2023/10/06 02:12:12;;;;;;;0.20;0.20;;;;;;;28.99;72.17;100085.88;7394787;19;20455;-62
2023/10/06 02:14:38;;;;;;;0.35;0.30;;;;;;;28.08;76.30;100092.19;7398269;19;20367;-62
2023/10/06 02:17:05;;;;;;;0.85;0.43;;;;;;;27.56;79.45;100100.03;7395720;19;20017;-62
2023/10/06 02:19:32;;;;;;;0.10;0.10;;;;;;;27.92;82.81;100088.72;7397354;19;20010;-62
2023/10/06 02:21:59;;;;;;;0.10;0.00;;;;;;;29.76;71.39;100081.81;7395153;19;20031;-62
2023/10/06 02:24:25;;;;;;;0.35;0.35;;;;;;;31.19;65.08;100083.53;7395369;19;20015;-63
2023/10/06 02:26:58;;;;;;;1.40;0.22;;;;;;;29.89;68.40;100089.97;7398983;19;20031;-63
2023/10/06 02:29:25;;;;;;;0.40;0.20;;;;;;;29.62;69.33;100083.59;7396358;19;20039;-62
2023/10/06 02:31:52;;;;;;;0.20;0.17;;;;;;;29.62;69.29;100086.47;7396289;19;20018;-62
2023/10/06 02:34:29;;;;;;;0.15;0.10;;;;;;;27.65;79.92;100102.22;7395007;19;20062;-63
2023/10/06 02:36:56;;;;;;;0.22;0.20;;;;;;;27.73;82.94;100094.31;7395755;19;20010;-63
2023/10/06 02:39:26;;;;;;;0.88;0.30;;;;;;;28.05;80.52;100091.28;7396807;19;20018;-62
2023/10/06 02:41:57;;;;;;;0.52;0.20;;;;;;;28.18;82.01;100090.91;7397206;19;20070;-63
2023/10/06 02:44:29;;;;;;;0.00;0.00;;;;;;;30.79;68.53;100080.69;7394300;19;20360;-62
2023/10/06 02:46:55;;;;;;;0.17;0.17;;;;;;;31.43;64.72;100090.97;7397109;19;20037;-62
2023/10/06 02:49:31;;;;;;;0.10;0.00;;;;;;;29.83;68.54;100080.91;7399514;19;20077;-62
2023/10/06 02:52:00;;;;;;;0.20;0.20;;;;;;;30.47;67.08;100076.25;7395775;19;20010;-62
2023/10/06 02:54:29;;;;;;;0.85;0.43;;;;;;;31.51;63.08;100079.25;7396932;19;20014;-62
2023/10/06 02:56:56;;;;;;;1.27;0.25;;;;;;;30.25;66.60;100080.41;7396237;19;20015;-62
2023/10/06 02:59:26;;;;;;;0.17;0.08;;;;;;;30.48;65.81;100085.66;7394672;19;20078;-63
2023/10/06 03:01:57;;;;;;;0.63;0.43;;;;;;;29.40;70.81;100079.06;7398349;19;20010;-62
2023/10/06 03:04:26;;;;;;;4.68;0.30;;;;;;;29.60;69.54;100086.34;7395938;19;20014;-62
2023/10/06 03:06:58;;;;;;;0.20;0.20;;;;;;;30.77;65.75;100071.94;7395768;19;20006;-63
2023/10/06 03:10:08;;;;;;;0.43;0.38;;;;;;;29.77;68.82;100066.09;7394138;19;20021;-62
2023/10/06 03:14:54;;;;;;;0.50;0.25;;;;;;;29.29;75.07;100050.19;7394180;19;20526;-62
2023/10/06 03:17:20;;;;;;;0.13;0.05;;;;;;;30.10;71.03;100048.38;7394638;19;20459;-63
2023/10/06 03:22:48;;;;;;;0.10;0.10;;;;;;;30.47;67.25;100043.91;7393521;19;20098;-63
2023/10/06 03:25:17;;;;;;;0.30;0.20;;;;;;;29.67;69.16;100036.59;7395443;19;20349;-62
2023/10/06 03:27:54;;;;;;;0.25;0.00;;;;;;;31.64;63.60;100047.00;7393614;19;20011;-63
2023/10/06 03:30:33;;;;;;;0.20;0.20;;;;;;;32.10;61.75;100052.19;7393650;19;20014;-63
2023/10/06 03:33:03;;;;;;;0.10;0.10;;;;;;;30.91;64.60;100044.16;7394691;19;20336;-62
2023/10/06 03:35:36;;;;;;;0.40;0.10;;;;;;;28.99;71.63;100046.50;7394485;19;20011;-62
2023/10/06 03:38:43;;;;;;;0.10;0.10;;;;;;;28.53;75.48;100043.59;7395842;19;20080;-62
2023/10/06 03:43:35;;;;;;;0.20;0.20;;;;;;;30.96;67.25;100048.06;7394696;19;20070;-62
2023/10/06 03:46:02;;;;;;;0.25;0.25;;;;;;;31.95;64.54;100044.00;7393380;19;20010;-61
2023/10/06 03:48:32;;;;;;;0.20;0.10;;;;;;;30.58;64.82;100046.13;7391654;19;20409;-61
2023/10/06 03:50:59;;;;;;;0.15;0.05;;;;;;;28.74;75.20;100053.81;7397351;19;20406;-61
2023/10/06 03:53:28;;;;;;;0.20;0.10;;;;;;;28.49;76.98;100042.53;7392124;19;20496;-62
2023/10/06 03:55:56;;;;;;;0.68;0.13;;;;;;;27.73;82.32;100048.53;7395141;19;20010;-62
2023/10/06 03:58:28;;;;;;;0.20;0.10;;;;;;;27.80;85.24;100039.09;7394537;19;20044;-62
2023/10/06 04:00:54;;;;;;;0.85;0.17;;;;;;;27.39;88.38;100042.81;7393641;19;20018;-62
2023/10/06 04:03:21;;;;;;;0.13;0.00;;;;;;;29.41;77.77;100034.63;7397246;19;20022;-62
2023/10/06 04:05:49;;;;;;;1.08;0.30;;;;;;;29.33;76.31;100039.78;7392979;19;20010;-62
2023/10/06 04:08:19;;;;;;;0.95;0.47;;;;;;;28.27;83.09;100046.47;7393450;19;20478;-62
2023/10/06 04:10:48;;;;;;;1.70;0.95;;;;;;;29.41;76.93;100045.38;7392970;19;20026;-62
2023/10/06 04:13:18;;;;;;;2.13;0.38;;;;;;;30.33;72.23;100037.13;7396672;19;20488;-62
2023/10/06 04:15:52;;;;;;;1.30;0.43;;;;;;;30.21;70.79;100039.13;7393312;19;20018;-62
2023/10/06 04:18:22;;;;;;;4.00;0.30;;;;;;;29.14;76.03;100039.72;7392936;19;20463;-62
2023/10/06 04:20:53;;;;;;;0.10;0.10;;;;;;;28.95;79.16;100045.44;7392884;19;20010;-62
2023/10/06 04:23:23;;;;;;;0.10;0.00;;;;;;;30.24;72.31;100044.41;7393345;19;20022;-62
2023/10/06 04:25:54;;;;;;;0.10;0.05;;;;;;;31.14;67.69;100038.59;7394671;19;20011;-62
2023/10/06 04:28:23;;;;;;;0.47;0.30;;;;;;;30.60;68.71;100044.13;7393838;19;20011;-62
2023/10/06 04:30:49;;;;;;;0.17;0.13;;;;;;;29.62;72.23;100049.16;7392935;19;20020;-63
2023/10/06 04:33:18;;;;;;;0.20;0.20;;;;;;;29.19;74.03;100053.06;7396862;19;20014;-62
2023/10/06 04:35:52;;;;;;;0.95;0.32;;;;;;;28.75;76.59;100055.31;7393344;19;20010;-62
2023/10/06 04:38:19;;;;;;;0.35;0.20;;;;;;;29.69;73.95;100056.09;7397064;19;20355;-62
2023/10/06 04:40:46;;;;;;;0.10;0.10;;;;;;;31.13;68.11;100053.56;7392501;19;20459;-62
2023/10/06 04:43:13;;;;;;;0.95;0.65;;;;;;;31.61;64.13;100056.13;7392837;19;20026;-62
2023/10/06 04:45:40;;;;;;;0.28;0.13;;;;;;;30.19;69.54;100048.31;7392421;19;20511;-62
2023/10/06 04:48:09;;;;;;;2.00;0.40;;;;;;;31.17;66.28;100043.09;7392107;19;20010;-63
2023/10/06 04:50:36;;;;;;;0.15;0.15;;;;;;;31.08;65.74;100046.78;7393139;19;20085;-63
2023/10/06 04:53:06;;;;;;;0.10;0.10;;;;;;;31.65;64.28;100034.09;7390851;19;20014;-63
2023/10/06 04:55:37;;;;;;;0.00;0.00;;;;;;;31.17;64.60;100039.44;7392915;19;20006;-63
2023/10/06 04:58:05;;;;;;;0.80;0.43;;;;;;;31.64;62.69;100041.22;7391969;19;20011;-62
2023/10/06 05:00:33;;;;;;;10.70;0.30;;;;;;;31.11;64.20;100036.94;7399900;19;20010;-62
2023/10/06 05:02:59;;;;;;;0.05;0.00;;;;;;;30.87;64.79;100029.50;7401703;19;20015;-62
2023/10/06 05:05:26;;;;;;;0.93;0.32;;;;;;;31.07;64.54;100030.91;7399659;19;20372;-63
2023/10/06 05:07:53;;;;;;;0.40;0.40;;;;;;;33.22;59.09;100028.94;7399646;19;20042;-62
2023/10/06 05:10:25;;;;;;;0.10;0.10;;;;;;;34.77;54.03;100018.31;7399456;19;20021;-62
2023/10/06 05:12:53;;;;;;;0.32;0.32;;;;;;;33.61;55.17;100021.19;7400408;19;20016;-62
2023/10/06 05:15:30;;;;;;;0.30;0.20;;;;;;;31.13;60.93;100024.78;7400347;19;20020;-63
2023/10/06 05:17:58;;;;;;;0.68;0.35;;;;;;;31.74;60.37;100026.75;7400208;19;20010;-62
2023/10/06 05:20:29;;;;;;;0.17;0.03;;;;;;;31.12;62.55;100024.03;7399342;19;20019;-62
2023/10/06 05:22:58;;;;;;;;;;;;;;;30.81;62.83;100023.31;7399112;19;20006;-62
2023/10/06 05:25:29;;;;;;;2.97;0.45;;;;;;;31.64;60.36;100028.97;7403834;19;20002;-62
2023/10/06 05:27:59;;;;;;;0.00;0.00;;;;;;;32.01;59.83;100027.13;7399927;19;20014;-62
2023/10/06 05:30:26;;;;;;;0.95;0.22;;;;;;;31.76;59.66;100035.53;7398819;19;20043;-62
2023/10/06 05:32:57;;;;;;;0.08;0.00;;;;;;;31.76;60.68;100029.75;7399728;19;20014;-62
2023/10/06 05:35:24;;;;;;;0.28;0.20;;;;;;;33.84;54.90;100023.97;7403026;19;20010;-62
2023/10/06 05:37:51;;;;;;;0.10;0.00;;;;;;;36.00;49.59;100032.59;7398776;19;20010;-62
2023/10/06 05:40:20;;;;;;;0.40;0.15;;;;;;;34.73;50.95;100023.16;7398804;19;20019;-62
2023/10/06 05:42:50;;;;;;;6.18;0.55;;;;;;;30.97;58.91;100035.22;7399168;19;20006;-62
2023/10/06 05:45:18;;;;;;;1.15;0.28;;;;;;;30.95;60.91;100041.56;7402461;19;20357;-61
2023/10/06 05:47:50;;;;;;;6.35;0.63;;;;;;;32.89;56.89;100038.50;7398914;19;20018;-61
2023/10/06 05:50:27;;;;;;;2.50;0.57;;;;;;;30.72;60.80;100032.72;7398817;19;20021;-61
2023/10/06 05:53:12;;;;;;;0.45;0.17;;;;;;;30.79;62.44;100040.44;7395888;19;20342;-62
2023/10/06 05:55:41;;;;;;;8.30;0.63;;;;;;;30.97;61.15;100033.06;7396962;19;20015;-62
2023/10/06 05:58:14;;;;;;;1.50;0.38;;;;;;;30.67;62.49;100025.19;7398094;19;20015;-62
2023/10/06 06:01:28;;;;;;;0.20;0.20;;;;;;;30.06;64.38;100022.22;7398484;19;20031;-62
2023/10/06 06:03:33;;;;;;;0.20;0.20;;;;;;;30.39;65.32;100020.31;7400391;19;20012;-61
2023/10/06 06:06:08;;;;;;;1.10;0.50;;;;;;;30.61;63.29;100027.63;7397557;19;20014;-62
2023/10/06 06:08:35;;;;;;;0.28;0.13;;;;;;;30.59;64.02;100027.50;7397589;19;20019;-62
2023/10/06 06:11:01;;;;;;;0.17;0.10;;;;;;;31.61;60.43;100030.22;7395669;19;20021;-62
2023/10/06 06:13:27;;;;;;;2.88;0.45;;;;;;;30.43;63.05;100032.84;7401257;19;20014;-62
2023/10/06 06:15:54;;;;;;;5.70;0.60;;;;;;;30.17;65.73;100033.09;7400758;19;20017;-62
2023/10/06 06:18:20;;;;;;;0.10;0.10;;;;;;;30.84;64.24;100033.56;7398023;19;20015;-62
2023/10/06 06:20:46;;;;;;;2.05;0.40;;;;;;;30.71;64.33;100034.09;7397799;19;20019;-62
2023/10/06 06:23:15;;;;;;;0.30;0.15;;;;;;;32.06;60.33;100032.53;7397789;19;20009;-62
2023/10/06 06:25:44;;;;;;;3.83;0.47;;;;;;;30.59;64.00;100039.00;7396234;19;20105;-62
2023/10/06 06:28:14;;;;;;;1.58;0.15;;;;;;;31.34;62.33;100036.31;7399789;19;20014;-62
2023/10/06 06:30:40;;;;;;;0.50;0.15;;;;;;;31.65;62.50;100037.00;7397456;19;20503;-62
2023/10/06 06:33:12;;;;;;;0.90;0.45;;;;;;;33.27;57.22;100039.34;7399168;19;20047;-62
2023/10/06 06:35:42;;;;;;;0.10;0.10;;;;;;;35.04;52.49;100044.38;7394369;19;20018;-62
2023/10/06 06:38:11;;;;;;;8.00;0.40;;;;;;;35.54;50.88;100051.31;7395938;19;20007;-62
2023/10/06 06:40:38;;;;;;;0.10;0.00;;;;;;;33.35;54.31;100052.13;7399745;19;20045;-61
2023/10/06 06:43:10;;;;;;;0.30;0.15;;;;;;;33.28;54.76;100052.41;7396206;19;20078;-61
2023/10/06 06:45:40;;;;;;;0.82;0.47;;;;;;;33.11;55.05;100058.59;7396004;19;20474;-62
2023/10/06 06:48:13;;;;;;;0.13;0.10;;;;;;;33.63;54.06;100062.47;7396782;19;20017;-62
2023/10/06 06:50:42;;;;;;;0.38;0.38;;;;;;;35.41;50.79;100058.59;7394875;19;20538;-62
2023/10/06 06:53:08;;;;;;;0.28;0.28;;;;;;;32.09;55.55;100070.88;7393700;19;20010;-62
2023/10/06 06:55:35;;;;;;;0.52;0.40;;;;;;;29.75;63.50;100065.19;7393503;19;20070;-61
2023/10/06 06:58:06;;;;;;;0.93;0.10;;;;;;;30.14;64.59;100068.78;7395414;19;20048;-62
2023/10/06 07:00:35;;;;;;;0.10;0.08;;;;;;;32.76;58.59;100082.44;7395164;19;20038;-62
2023/10/06 07:03:01;;;;;;;0.03;0.00;;;;;;;33.08;56.32;100075.03;7396915;19;20006;-62
2023/10/06 07:05:29;;;;;;;0.32;0.00;;;;;;;34.18;54.66;100077.97;7396060;19;20038;-62
2023/10/06 07:07:56;;;;;;;0.13;0.10;;;;;;;36.05;49.89;100074.91;7394897;19;20027;-61
2023/10/06 07:10:23;;;;;;;0.28;0.10;;;;;;;35.65;50.31;100083.06;7395452;19;20007;-61
2023/10/06 07:12:50;;;;;;;0.10;0.10;;;;;;;32.02;56.98;100081.25;7396078;19;20030;-61
2023/10/06 07:15:18;;;;;;;0.00;0.00;;;;;;;30.00;63.95;100082.84;7399734;19;20019;-62
2023/10/06 07:17:49;;;;;;;0.08;0.08;;;;;;;29.73;66.30;100088.75;7396148;19;20014;-62
2023/10/06 07:20:27;;;;;;;1.08;0.30;;;;;;;29.59;67.45;100096.28;7394821;19;20014;-62
2023/10/06 07:23:00;;;;;;;0.35;0.30;;;;;;;30.03;66.59;100095.25;7393075;19;20011;-62
2023/10/06 07:25:27;;;;;;;0.17;0.03;;;;;;;28.80;72.81;100095.19;7400043;19;20027;-62
2023/10/06 07:27:58;;;;;;;0.32;0.13;;;;;;;31.29;64.62;100092.88;7395128;19;20451;-62
2023/10/06 07:30:34;;;;;;;0.50;0.35;;;;;;;31.11;64.45;100100.22;7395010;19;20537;-62
2023/10/06 07:33:00;;;;;;;0.00;0.00;;;;;;;31.33;63.62;100104.66;7394992;19;20011;-62
2023/10/06 07:35:37;;;;;;;0.43;0.28;;;;;;;31.30;62.89;100099.34;7399183;19;20017;-61
2023/10/06 07:38:03;;;;;;;0.10;0.00;;;;;;;31.69;61.97;100112.13;7394352;19;20107;-61
2023/10/06 07:40:29;;;;;;;0.50;0.25;;;;;;;32.85;59.38;100113.25;7394582;19;20021;-61
2023/10/06 07:42:55;;;;;;;0.22;0.15;;;;;;;35.16;53.03;100110.13;7395256;19;20018;-60
2023/10/06 07:45:22;;;;;;;0.17;0.15;;;;;;;33.72;55.38;100126.53;7397874;19;20018;-61
2023/10/06 07:47:48;;;;;;;0.10;0.00;;;;;;;33.35;56.33;100117.81;7392245;19;20023;-61
2023/10/06 07:50:15;;;;;;;0.32;0.20;;;;;;;34.55;55.15;100117.63;7394782;19;20010;-61
2023/10/06 07:52:46;;;;;;;0.00;0.00;;;;;;;35.47;51.10;100110.34;7393309;19;20014;-61
2023/10/06 07:55:13;;;;;;;0.00;0.00;;;;;;;35.67;50.15;100117.94;7398024;19;20049;-62
2023/10/06 07:57:45;;;;;;;4.57;0.75;;;;;;;35.95;49.82;100112.06;7394678;19;20011;-61
2023/10/06 08:00:18;;;;;;;0.65;0.15;;;;;;;35.31;50.78;100123.97;7392844;19;20011;-61
2023/10/06 08:02:45;;;;;;;0.00;0.00;;;;;;;35.33;50.98;100124.81;7396568;19;20014;-61
2023/10/06 08:05:17;;;;;;;0.00;0.00;;;;;;;36.51;48.79;100132.31;7397689;19;20348;-61
2023/10/06 08:07:43;;;;;;;0.10;0.00;;;;;;;36.11;48.36;100130.28;7393924;19;20035;-61
2023/10/06 08:10:14;;;;;;;0.10;0.10;;;;;;;33.66;54.42;100135.59;7394566;19;20483;-61
2023/10/06 08:12:40;;;;;;;;;;;;;;;36.24;49.85;100132.38;7395050;19;20332;-62
2023/10/06 08:15:09;;;;;;;0.43;0.43;;;;;;;36.12;49.75;100126.75;7397106;19;19951;-61
2023/10/06 08:17:36;;;;;;;0.10;0.10;;;;;;;36.91;49.10;100131.31;7393889;19;20024;-62
2023/10/06 08:20:05;;;;;;;0.03;0.00;;;;;;;37.45;47.57;100129.41;7395508;19;20084;-61
2023/10/06 08:22:33;;;;;;;0.00;0.00;;;;;;;38.61;45.48;100139.41;7397588;19;20019;-61
2023/10/06 08:25:05;;;;;;;0.10;0.10;;;;;;;39.16;44.60;100131.38;7394975;19;20074;-61
2023/10/06 08:27:32;;;;;;;0.10;0.00;;;;;;;39.04;43.37;100130.91;7397920;19;20035;-62
2023/10/06 08:29:59;;;;;;;5.05;0.63;;;;;;;40.67;41.46;100130.00;7397005;19;20015;-62
2023/10/06 08:32:25;;;;;;;0.10;0.10;;;;;;;36.56;46.67;100133.25;7393669;19;20021;-62
2023/10/06 08:34:53;;;;;;;0.00;0.00;;;;;;;34.72;50.34;100131.59;7403391;19;20010;-62
2023/10/06 08:37:19;;;;;;;0.08;0.08;;;;;;;35.80;49.79;100133.81;7400261;19;20010;-61
2023/10/06 08:39:46;;;;;;;0.73;0.30;;;;;;;35.93;49.91;100138.06;7400248;19;20470;-61
2023/10/06 08:42:17;;;;;;;0.10;0.10;;;;;;;35.99;49.61;100152.91;7400354;19;20014;-61
2023/10/06 08:44:44;;;;;;;;;;;;;;;36.60;48.88;100140.00;7403452;19;20455;-61
2023/10/06 08:47:13;;;;;;;0.10;0.00;;;;;;;34.03;53.45;100152.97;7400033;19;19922;-61
2023/10/06 08:49:40;;;;;;;1.50;0.32;;;;;;;37.30;47.83;100157.03;7400892;19;20019;-62
2023/10/06 08:52:12;;;;;;;1.35;0.10;;;;;;;37.18;47.01;100153.59;7398787;19;20014;-63
2023/10/06 08:54:40;;;;;;;0.00;0.00;;;;;;;35.02;50.12;100150.69;7403406;19;20010;-62
2023/10/06 08:57:11;;;;;;;0.20;0.17;;;;;;;37.19;47.06;100155.09;7400434;19;20011;-62
2023/10/06 08:59:39;;;;;;;1.35;0.00;;;;;;;36.36;47.79;100159.09;7399420;19;20039;-62
2023/10/06 09:02:08;;;;;;;2.40;0.22;;;;;;;36.85;46.62;100156.38;7399205;19;20015;-62
2023/10/06 09:04:36;;;;;;;1.35;0.10;;;;;;;37.08;46.19;100158.94;7401278;19;20083;-62
2023/10/06 09:07:11;;;;;;;0.10;0.10;;;;;;;37.90;44.85;100159.75;7399300;19;20013;-62
2023/10/06 09:09:40;;;;;;;0.00;0.00;;;;;;;38.13;45.16;100158.53;7399544;19;20018;-62
2023/10/06 09:12:09;;;;;;;0.00;0.00;;;;;;;37.30;45.55;100167.91;7399537;19;20022;-62
2023/10/06 09:14:49;;;;;;;0.00;0.00;;;;;;;34.56;50.90;100177.00;7403025;19;20443;-62
2023/10/06 09:17:30;;;;;;;0.00;0.00;;;;;;;33.83;53.05;100181.41;7398326;19;20031;-62
2023/10/06 09:19:56;;;;;;;;;;;;;;;38.01;46.80;100175.47;7399850;19;20011;-61
2023/10/06 09:22:28;;;;;;;0.10;0.10;;;;;;;34.58;51.46;100180.78;7399662;19;19914;-63
2023/10/06 09:24:59;;;;;;;0.10;0.00;;;;;;;34.56;53.21;100182.78;7403709;19;20022;-63
2023/10/06 09:27:26;;;;;;;0.00;0.00;;;;;;;35.88;50.15;100179.84;7400245;19;20081;-63
2023/10/06 09:30:07;;;;;;;0.75;0.20;;;;;;;36.37;48.73;100183.81;7400063;19;20078;-63
2023/10/06 09:32:35;;;;;;;0.00;0.00;;;;;;;38.93;44.60;100177.78;7399493;19;20074;-63
2023/10/06 09:35:21;;;;;;;0.20;0.00;;;;;;;40.01;43.21;100176.00;7401321;19;20482;-62
2023/10/06 09:37:47;;;;;;;0.00;0.00;;;;;;;41.38;40.63;100174.53;7398459;19;20018;-62
2023/10/06 09:40:20;;;;;;;0.70;0.63;;;;;;;40.46;41.81;100178.25;7398816;19;20070;-62
2023/10/06 09:42:47;;;;;;;2.40;0.10;;;;;;;40.55;40.66;100179.25;7398194;19;20022;-61
2023/10/06 09:45:18;;;;;;;0.32;0.10;;;;;;;38.19;44.79;100184.22;7400693;19;20038;-62
2023/10/06 09:47:49;;;;;;;0.98;0.43;;;;;;;37.22;45.82;100174.88;7396956;19;20052;-62
2023/10/06 09:50:20;;;;;;;0.05;0.00;;;;;;;36.16;49.95;100176.25;7397007;19;20499;-62
2023/10/06 09:52:51;;;;;;;0.10;0.10;;;;;;;38.47;46.11;100191.97;7396050;19;20082;-63
2023/10/06 09:55:20;;;;;;;0.08;0.00;;;;;;;43.77;38.27;100175.91;7401646;19;20034;-63
2023/10/06 09:57:48;;;;;;;0.30;0.28;;;;;;;44.59;36.45;100172.88;7395990;19;20006;-62
2023/10/06 10:00:17;;;;;;;0.32;0.10;;;;;;;45.64;34.60;100181.66;7397743;19;20023;-62
2023/10/06 10:02:48;;;;;;;1.35;0.30;;;;;;;46.23;33.33;100164.53;7399656;19;20015;-62
2023/10/06 10:05:19;;;;;;;0.10;0.10;;;;;;;47.24;31.64;100151.16;7398612;19;20073;-62
2023/10/06 10:07:49;;;;;;;0.35;0.32;;;;;;;48.50;30.11;100152.84;7398143;19;20015;-62
2023/10/06 10:10:27;;;;;;;1.08;0.32;;;;;;;49.16;29.66;100158.59;7398009;19;20032;-62
2023/10/06 10:12:53;;;;;;;0.20;0.00;;;;;;;49.73;28.60;100161.94;7396274;19;20015;-61
2023/10/06 10:15:44;;;;;;;0.25;0.10;;;;;;;49.94;28.18;100163.31;7396147;19;20486;-62
2023/10/06 10:18:24;;;;;;;2.75;0.65;;;;;;;49.28;27.74;100172.56;7399747;19;20011;-63
2023/10/06 10:20:52;;;;;;;0.43;0.17;;;;;;;49.57;27.20;100167.25;7396924;19;20013;-62
2023/10/06 10:23:18;;;;;;;0.65;0.00;;;;;;;49.73;27.00;100161.94;7396872;19;20014;-62
2023/10/06 10:25:45;;;;;;;4.95;0.90;;;;;;;49.72;27.13;100160.50;7396905;19;20467;-62
2023/10/06 10:28:17;;;;;;;0.10;0.10;;;;;;;49.99;26.51;100164.03;7397802;19;20011;-62
2023/10/06 10:31:00;;;;;;;0.60;0.22;;;;;;;50.21;25.84;100166.09;7399678;19;20459;-62
2023/10/06 10:33:31;;;;;;;0.10;0.10;;;;;;;50.46;26.07;100171.03;7398553;19;20010;-62
2023/10/06 10:36:13;;;;;;;1.92;0.25;;;;;;;50.53;25.86;100153.94;7395601;19;20006;-62
2023/10/06 10:38:40;;;;;;;0.10;0.08;;;;;;;50.66;25.50;100164.88;7394260;19;20103;-62
2023/10/06 10:41:07;;;;;;;0.10;0.00;;;;;;;50.71;25.38;100168.53;7398428;19;20392;-60
2023/10/06 10:43:45;;;;;;;0.65;0.52;;;;;;;50.41;25.54;100159.94;7399440;19;20372;-60
2023/10/06 10:46:14;;;;;;;0.90;0.10;;;;;;;50.68;25.04;100164.13;7392612;19;20014;-61
2023/10/06 10:48:50;;;;;;;0.10;0.10;;;;;;;50.46;25.30;100149.50;7395190;19;20367;-60
2023/10/06 10:51:21;;;;;;;2.08;0.20;;;;;;;50.66;25.21;100155.25;7394996;19;20014;-60
2023/10/06 10:53:49;;;;;;;6.43;0.50;;;;;;;50.96;24.84;100149.00;7394222;19;20035;-61
2023/10/06 10:56:18;;;;;;;0.03;0.03;;;;;;;50.88;24.79;100152.03;7393154;19;20530;-61
2023/10/06 10:58:44;;;;;;;0.10;0.00;;;;;;;50.91;24.78;100153.50;7395412;19;20018;-61
2023/10/06 11:01:31;;;;;;;0.28;0.10;;;;;;;50.91;24.77;100167.59;7395036;19;20472;-61
2023/10/06 11:04:09;;;;;;;0.75;0.10;;;;;;;50.88;25.07;100157.25;7399690;19;20022;-61
2023/10/06 11:06:37;;;;;;;0.68;0.00;;;;;;;51.08;25.04;100157.72;7396336;19;20022;-61
2023/10/06 11:11:49;;;;;;;1.10;0.30;;;;;;;49.79;25.19;100164.88;7395138;19;20011;-61
2023/10/06 11:14:16;;;;;;;1.27;0.15;;;;;;;50.29;25.49;100154.88;7397389;19;20324;-60
2023/10/06 11:16:49;;;;;;;1.85;0.63;;;;;;;50.17;25.01;100157.91;7392306;19;20015;-60
2023/10/06 11:19:16;;;;;;;0.30;0.10;;;;;;;49.56;25.65;100154.66;7395834;19;20019;-61
2023/10/06 11:21:48;;;;;;;0.85;0.35;;;;;;;29.80;55.13;100182.63;7395775;19;20050;-61
2023/10/06 11:24:25;;;;;;;0.52;0.13;;;;;;;23.66;100.00;100202.19;7396156;19;20349;-61
2023/10/06 11:26:52;;;;;;;1.55;0.20;;;;;;;22.26;100.00;100205.28;7395486;19;20021;-60
2023/10/06 11:29:29;;;;;;;1.98;0.20;;;;;;;26.36;100.00;100199.59;7396618;19;20455;-61
2023/10/06 11:31:58;;;;;;;0.20;0.10;;;;;;;35.00;87.38;100196.88;7392788;19;20014;-61
2023/10/06 11:34:24;;;;;;;2.47;0.22;;;;;;;36.68;54.58;100194.78;7394632;19;20360;-60
2023/10/06 11:36:56;;;;;;;3.67;0.20;;;;;;;46.83;35.74;100179.75;7395132;19;20018;-60
2023/10/06 11:39:26;;;;;;;2.08;0.32;;;;;;;27.31;100.00;100213.75;7394746;19;20023;-60
2023/10/06 11:41:55;;;;;;;3.13;0.30;;;;;;;45.37;38.40;100179.13;7393254;19;20010;-59
2023/10/06 11:44:22;;;;;;;4.28;0.57;;;;;;;46.14;33.84;100186.56;7397694;19;20018;-60
2023/10/06 11:46:52;;;;;;;3.35;0.13;;;;;;;47.00;32.19;100186.47;7394863;19;20014;-60
2023/10/06 11:49:20;;;;;;;;;;;;;;;29.37;79.43;100211.53;7398012;19;20015;-59
2023/10/06 11:51:47;;;;;;;1.27;0.10;;;;;;;23.77;100.00;100226.72;7394942;19;19911;-59
2023/10/06 11:54:14;;;;;;;12.60;0.43;;;;;;;22.07;100.00;100233.78;7393633;19;20034;-60